Time;durP1;ratioP1;P1;durP2;ratioP2;P2;SDS_P1;SDS_P2;PMS_P1;PMS_P2;Temp;Humidity;BMP_temperature;BMP_pressure;BME280_temperature;BME280_humidity;BME280_pressure;Samples;Min_cycle;Max_cycle;Signal;HPM_P1;HPM_P2
2023/10/18 00:01:18;;;;;;;3.60;3.30;;;8.00;35.50;;;;;;10391713;28;20228;-75
2023/10/18 00:06:23;;;;;;;3.73;3.43;;;7.90;35.50;;;;;;10392702;28;20245;-75
2023/10/18 00:11:26;;;;;;;4.50;4.10;;;7.80;35.60;;;;;;10390045;28;20253;-75
2023/10/18 00:16:31;;;;;;;3.90;3.60;;;7.70;35.70;;;;;;10387357;28;20587;-75
2023/10/18 00:21:34;;;;;;;3.40;3.20;;;7.70;35.80;;;;;;10386894;28;20225;-75
2023/10/18 00:26:39;;;;;;;3.73;3.43;;;7.60;35.80;;;;;;10392072;28;20229;-75
2023/10/18 00:31:44;;;;;;;4.50;4.10;;;7.50;35.90;;;;;;10384528;28;20229;-75
2023/10/18 00:36:47;;;;;;;4.57;4.27;;;7.50;36.20;;;;;;10391216;28;20253;-75
2023/10/18 00:41:54;;;;;;;4.40;4.00;;;7.50;36.20;;;;;;10386097;28;20280;-76
2023/10/18 00:46:59;;;;;;;4.17;3.87;;;7.40;36.20;;;;;;10389667;28;20719;-75
2023/10/18 00:52:02;;;;;;;4.60;4.20;;;7.40;36.20;;;;;;10386747;28;20228;-75
2023/10/18 00:57:07;;;;;;;4.17;3.87;;;7.40;36.20;;;;;;10387302;28;20240;-72
2023/10/18 01:02:14;;;;;;;3.87;3.47;;;7.40;36.20;;;;;;10380119;28;20229;-73
2023/10/18 01:07:20;;;;;;;4.47;4.07;;;7.40;36.30;;;;;;10381880;28;20323;-73
2023/10/18 01:12:25;;;;;;;4.30;3.93;;;7.40;36.20;;;;;;10387049;28;20261;-73
2023/10/18 01:17:33;;;;;;;3.30;3.10;;;7.40;36.20;;;;;;10382262;28;20230;-73
2023/10/18 01:22:38;;;;;;;3.67;3.47;;;7.40;36.30;;;;;;10386898;28;20643;-74
2023/10/18 01:27:43;;;;;;;4.10;3.80;;;7.40;36.30;;;;;;10385380;28;20707;-73
2023/10/18 01:32:48;;;;;;;3.70;3.40;;;7.40;36.20;;;;;;10379274;28;20241;-73
2023/10/18 01:37:53;;;;;;;4.40;4.00;;;7.40;36.20;;;;;;10384979;28;20230;-75
2023/10/18 01:42:58;;;;;;;4.87;4.47;;;7.30;36.10;;;;;;10383051;28;20233;-74
2023/10/18 01:48:04;;;;;;;4.50;4.10;;;7.30;36.20;;;;;;10383936;28;20232;-75
2023/10/18 01:53:15;;;;;;;4.27;3.97;;;7.30;36.20;;;;;;10385315;28;20921;-75
2023/10/18 01:58:23;;;;;;;4.23;3.93;;;7.30;36.20;;;;;;10379093;28;21013;-73
2023/10/18 02:03:28;;;;;;;4.10;3.80;;;7.20;36.40;;;;;;10378575;28;20799;-73
2023/10/18 02:08:33;;;;;;;4.20;3.90;;;7.20;36.20;;;;;;10386014;28;20230;-73
2023/10/18 02:13:37;;;;;;;4.40;4.10;;;7.10;36.20;;;;;;10377079;28;20236;-73
2023/10/18 02:18:41;;;;;;;4.50;4.20;;;7.10;36.40;;;;;;10383237;28;21149;-77
2023/10/18 02:23:48;;;;;;;4.33;3.93;;;7.00;36.30;;;;;;10383218;28;20225;-77
2023/10/18 02:28:53;;;;;;;4.20;3.90;;;7.00;36.40;;;;;;10375091;28;20241;-75
2023/10/18 02:33:57;;;;;;;4.13;3.83;;;7.00;36.50;;;;;;10379086;28;20249;-75
2023/10/18 02:39:01;;;;;;;3.93;3.63;;;7.00;36.50;;;;;;10378265;28;20245;-75
2023/10/18 02:44:12;;;;;;;7.57;4.37;;;7.00;36.40;;;;;;10383143;28;20234;-76
2023/10/18 02:49:17;;;;;;;4.77;4.37;;;7.00;36.30;;;;;;10378796;28;20225;-75
2023/10/18 02:54:23;;;;;;;5.20;4.47;;;6.90;36.00;;;;;;10370259;28;20226;-75
2023/10/18 02:59:28;;;;;;;5.10;4.70;;;6.80;36.10;;;;;;10383419;28;20599;-75
2023/10/18 03:04:34;;;;;;;5.47;5.07;;;6.80;36.20;;;;;;10380155;28;20945;-75
2023/10/18 03:09:40;;;;;;;5.97;5.47;;;6.70;36.20;;;;;;10373646;28;20240;-75
2023/10/18 03:14:54;;;;;;;6.23;5.73;;;6.60;36.40;;;;;;10377322;28;20251;-75
2023/10/18 03:19:58;;;;;;;5.50;5.10;;;6.50;36.70;;;;;;10380975;28;20695;-75
2023/10/18 03:25:01;;;;;;;4.93;4.53;;;6.50;36.60;;;;;;10381440;28;20233;-75
2023/10/18 03:30:17;;;;;;;5.30;4.90;;;6.50;36.70;;;;;;10377976;28;20922;-75
2023/10/18 03:35:22;;;;;;;6.30;5.80;;;6.50;37.00;;;;;;10374690;28;20228;-74
2023/10/18 03:40:27;;;;;;;6.40;5.80;;;6.50;36.90;;;;;;10372907;28;20252;-74
2023/10/18 03:46:07;;;;;;;6.43;5.83;;;6.50;36.90;;;;;;10379879;28;20226;-77
2023/10/18 03:51:00;;;;;;;6.23;5.73;;;6.50;37.20;;;;;;10373308;28;20321;-77
2023/10/18 03:56:04;;;;;;;6.70;6.10;;;6.50;36.90;;;;;;10379649;28;20360;-75
2023/10/18 04:01:12;;;;;;;6.37;5.80;;;6.60;37.10;;;;;;10379094;28;20237;-74
2023/10/18 04:06:23;;;;;;;6.43;5.87;;;6.50;37.20;;;;;;10383034;28;20898;-73
2023/10/18 04:11:28;;;;;;;7.33;6.63;;;6.50;36.90;;;;;;10372409;28;20307;-74
2023/10/18 04:16:35;;;;;;;6.07;5.47;;;6.50;36.90;;;;;;10378809;28;20312;-74
2023/10/18 04:21:38;;;;;;;5.77;5.33;;;6.50;37.20;;;;;;10377322;28;20228;-74
2023/10/18 04:26:41;;;;;;;5.83;5.43;;;6.40;37.10;;;;;;10379468;28;20236;-74
2023/10/18 04:31:49;;;;;;;5.87;5.37;;;6.40;37.20;;;;;;10374566;28;20249;-74
2023/10/18 04:36:55;;;;;;;5.97;5.47;;;6.40;38.40;;;;;;10371570;28;20234;-74
2023/10/18 04:41:58;;;;;;;6.27;5.77;;;6.40;37.30;;;;;;10382351;28;21057;-74
2023/10/18 04:47:04;;;;;;;6.30;5.80;;;6.40;37.40;;;;;;10381175;28;20732;-75
2023/10/18 04:52:08;;;;;;;6.60;6.10;;;6.40;37.40;;;;;;10386613;28;20252;-75
2023/10/18 04:57:12;;;;;;;14.17;6.03;;;6.40;37.20;;;;;;10387349;28;20240;-75
2023/10/18 05:02:26;;;;;;;5.63;5.13;;;6.40;37.20;;;;;;10383111;28;20316;-74
2023/10/18 05:07:41;;;;;;;5.90;5.40;;;6.30;37.30;;;;;;10376057;28;20225;-75
2023/10/18 05:12:49;;;;;;;6.90;5.07;;;6.30;37.20;;;;;;10380201;28;20224;-74
2023/10/18 05:17:58;;;;;;;4.53;4.23;;;6.40;37.30;;;;;;10380130;28;20236;-74
2023/10/18 05:23:04;;;;;;;5.43;5.03;;;6.20;37.40;;;;;;10384184;28;20225;-74
2023/10/18 05:28:15;;;;;;;6.70;6.10;;;6.20;37.80;;;;;;10371519;28;20221;-74
2023/10/18 05:33:47;;;;;;;6.17;5.67;;;6.20;37.70;;;;;;10378424;28;20233;-75
2023/10/18 05:38:52;;;;;;;5.63;5.13;;;6.20;37.80;;;;;;10380513;28;20241;-75
2023/10/18 05:43:58;;;;;;;5.70;5.20;;;6.20;37.70;;;;;;10384798;28;20230;-74
2023/10/18 05:49:13;;;;;;;4.53;4.13;;;6.20;37.80;;;;;;10381464;28;20321;-75
2023/10/18 05:54:19;;;;;;;6.10;5.60;;;6.30;37.80;;;;;;10384860;28;20236;-76
2023/10/18 05:59:31;;;;;;;5.57;5.07;;;6.30;37.80;;;;;;10380859;28;20287;-75
2023/10/18 06:04:38;;;;;;;6.30;5.70;;;6.30;37.80;;;;;;10385039;28;20309;-75
2023/10/18 06:09:54;;;;;;;5.87;5.37;;;6.30;37.70;;;;;;10378855;28;20315;-74
2023/10/18 06:15:10;;;;;;;6.90;5.23;;;6.20;37.30;;;;;;10382490;28;20237;-75
2023/10/18 06:20:27;;;;;;;5.93;5.50;;;6.20;37.40;;;;;;10374777;28;20233;-75
2023/10/18 06:25:34;;;;;;;5.60;5.20;;;6.20;37.70;;;;;;10374175;28;20232;-75
2023/10/18 06:30:40;;;;;;;5.93;5.43;;;6.10;37.50;;;;;;10368956;28;20271;-75
2023/10/18 06:35:51;;;;;;;6.20;5.70;;;6.10;37.60;;;;;;10375287;28;20232;-75
2023/10/18 06:41:00;;;;;;;6.40;5.90;;;6.10;37.60;;;;;;10379984;28;20444;-74
2023/10/18 06:46:14;;;;;;;5.63;5.13;;;6.10;37.70;;;;;;10378246;28;20226;-74
2023/10/18 06:51:26;;;;;;;6.57;5.97;;;6.10;37.60;;;;;;10381665;28;20226;-74
2023/10/18 06:56:32;;;;;;;6.80;6.20;;;6.10;37.70;;;;;;10380235;28;20573;-75
2023/10/18 07:01:41;;;;;;;6.53;6.03;;;6.20;37.80;;;;;;10377569;28;20252;-74
2023/10/18 07:06:46;;;;;;;6.30;5.80;;;6.20;37.80;;;;;;10375439;28;20264;-74
2023/10/18 07:11:50;;;;;;;6.90;6.20;;;6.20;37.80;;;;;;10380871;28;20723;-74
2023/10/18 07:16:55;;;;;;;6.77;6.17;;;6.30;37.90;;;;;;10380520;28;21638;-75
2023/10/18 07:22:04;;;;;;;6.53;5.93;;;6.40;38.20;;;;;;10382808;28;20240;-75
2023/10/18 07:27:09;;;;;;;6.43;5.93;;;6.40;38.70;;;;;;10375430;28;20229;-75
2023/10/18 07:32:13;;;;;;;6.47;5.93;;;6.50;38.80;;;;;;10381228;28;20225;-76
2023/10/18 07:37:19;;;;;;;6.60;6.03;;;6.70;39.30;;;;;;10379971;28;20230;-77
2023/10/18 07:42:26;;;;;;;7.17;6.40;;;6.80;39.80;;;;;;10375759;28;20233;-77
2023/10/18 07:47:32;;;;;;;7.03;6.33;;;7.00;40.50;;;;;;10377992;28;20233;-78
2023/10/18 07:52:37;;;;;;;6.53;5.93;;;7.20;39.80;;;;;;10380081;28;20264;-77
2023/10/18 07:57:46;;;;;;;6.93;6.33;;;7.40;40.30;;;;;;10377293;28;20253;-77
2023/10/18 08:02:50;;;;;;;6.83;6.17;;;7.60;40.00;;;;;;10379563;28;20221;-78
2023/10/18 08:07:57;;;;;;;7.13;6.47;;;7.70;40.00;;;;;;10376639;28;20222;-77
2023/10/18 08:13:07;;;;;;;7.37;6.67;;;7.90;40.40;;;;;;10375991;28;20316;-77
2023/10/18 08:18:15;;;;;;;7.43;6.73;;;8.00;40.20;;;;;;10381132;28;21273;-78
2023/10/18 08:23:34;;;;;;;7.00;6.30;;;8.20;40.40;;;;;;10382402;28;20228;-78
2023/10/18 08:28:45;;;;;;;6.70;6.20;;;8.40;40.60;;;;;;10382915;28;20252;-77
2023/10/18 08:33:49;;;;;;;7.27;6.57;;;8.60;40.50;;;;;;10381736;28;20251;-78
2023/10/18 08:38:56;;;;;;;8.23;7.03;;;8.80;40.60;;;;;;10375413;28;20234;-78
2023/10/18 08:44:15;;;;;;;8.13;7.10;;;8.90;40.90;;;;;;10383946;28;20228;-78
2023/10/18 08:49:23;;;;;;;8.10;7.33;;;9.10;41.70;;;;;;10381957;28;20225;-77
2023/10/18 08:54:30;;;;;;;7.20;6.60;;;9.30;41.20;;;;;;10386341;28;20272;-77
2023/10/18 08:59:46;;;;;;;7.50;6.90;;;9.50;41.10;;;;;;10385028;28;20306;-78
2023/10/18 09:04:54;;;;;;;7.90;7.10;;;9.70;40.90;;;;;;10380060;28;20225;-77
2023/10/18 09:10:01;;;;;;;7.73;7.07;;;10.00;39.90;;;;;;10384131;28;20234;-77
2023/10/18 09:20:29;;;;;;;7.47;6.70;;;10.30;40.20;;;;;;10379898;28;20245;-73
2023/10/18 09:30:53;;;;;;;7.20;6.20;;;10.70;40.50;;;;;;10379950;28;20605;-72
2023/10/18 09:36:01;;;;;;;7.07;6.40;;;11.00;40.80;;;;;;10384389;28;20321;-72
2023/10/18 09:41:05;;;;;;;6.77;6.17;;;11.20;40.30;;;;;;10383132;28;20316;-72
2023/10/18 09:46:10;;;;;;;6.97;6.27;;;11.50;40.30;;;;;;10384319;28;20707;-72
2023/10/18 09:51:15;;;;;;;6.70;6.10;;;11.80;40.10;;;;;;10381635;28;20335;-72
2023/10/18 09:56:24;;;;;;;6.30;5.70;;;12.00;39.60;;;;;;10378186;28;20234;-71
2023/10/18 10:01:29;;;;;;;5.93;5.43;;;12.30;39.70;;;;;;10384664;28;20235;-71
2023/10/18 10:06:33;;;;;;;6.40;5.77;;;12.50;39.50;;;;;;10380579;28;20229;-71
2023/10/18 10:11:43;;;;;;;6.53;5.97;;;12.80;39.50;;;;;;10380471;28;20236;-72
2023/10/18 10:16:52;;;;;;;5.77;5.37;;;13.00;38.90;;;;;;10382612;28;20229;-75
2023/10/18 10:22:04;;;;;;;5.70;5.20;;;13.20;38.40;;;;;;10384814;28;20249;-75
2023/10/18 10:27:39;;;;;;;5.33;4.73;;;13.30;38.50;;;;;;10380123;28;20249;-76
2023/10/18 10:32:45;;;;;;;6.77;5.37;;;13.40;37.90;;;;;;10381298;28;20237;-76
2023/10/18 10:37:50;;;;;;;5.53;5.10;;;13.50;38.20;;;;;;10375981;28;20226;-77
2023/10/18 10:43:01;;;;;;;5.80;5.30;;;13.60;38.20;;;;;;10378298;28;20233;-76
2023/10/18 10:48:43;;;;;;;5.10;4.70;;;13.80;38.00;;;;;;10381517;28;20224;-77
2023/10/18 10:53:50;;;;;;;5.50;5.00;;;14.00;37.90;;;;;;10375740;28;20333;-76
2023/10/18 10:59:03;;;;;;;4.97;4.57;;;14.20;37.90;;;;;;10380365;28;20241;-76
2023/10/18 11:04:14;;;;;;;5.23;4.83;;;14.40;37.30;;;;;;10357413;28;20332;-75
2023/10/18 11:09:18;;;;;;;5.23;4.70;;;14.50;37.00;;;;;;10379978;28;21044;-76
2023/10/18 11:14:27;;;;;;;5.23;4.83;;;14.70;37.40;;;;;;10373728;28;20612;-76
2023/10/18 11:19:31;;;;;;;5.63;5.13;;;14.70;36.00;;;;;;10384934;28;20229;-75
2023/10/18 11:24:39;;;;;;;5.93;5.00;;;14.80;36.90;;;;;;10383514;28;21125;-76
2023/10/18 11:29:44;;;;;;;5.60;4.83;;;14.90;36.60;;;;;;10379995;28;20794;-76
2023/10/18 11:34:51;;;;;;;5.43;4.93;;;14.90;37.00;;;;;;10380345;28;20712;-76
2023/10/18 11:39:56;;;;;;;5.43;4.93;;;14.90;36.50;;;;;;10371540;28;20275;-75
2023/10/18 11:45:01;;;;;;;5.30;4.87;;;15.00;36.40;;;;;;10379133;28;20221;-75
2023/10/18 11:50:06;;;;;;;5.23;4.80;;;15.00;36.30;;;;;;10368332;28;20239;-72
2023/10/18 11:55:10;;;;;;;5.03;4.63;;;15.10;36.30;;;;;;10379387;28;21026;-70
2023/10/18 12:00:26;;;;;;;5.57;5.07;;;15.20;36.30;;;;;;10378999;28;21056;-72
2023/10/18 12:05:29;;;;;;;5.50;5.00;;;15.30;35.80;;;;;;10377490;28;20228;-71
2023/10/18 12:10:35;;;;;;;5.20;4.80;;;15.40;36.00;;;;;;10378095;28;20234;-71
2023/10/18 12:15:40;;;;;;;5.00;4.60;;;15.50;35.90;;;;;;10377954;28;20235;-72
2023/10/18 12:20:46;;;;;;;5.20;4.70;;;15.50;35.60;;;;;;10380012;28;20233;-71
2023/10/18 12:25:50;;;;;;;4.70;4.30;;;15.60;35.80;;;;;;10379289;28;20950;-71
2023/10/18 12:30:55;;;;;;;5.27;4.87;;;15.70;35.70;;;;;;10371901;28;20249;-71
2023/10/18 12:36:00;;;;;;;5.27;4.83;;;15.70;35.00;;;;;;10377094;28;20240;-73
2023/10/18 12:41:07;;;;;;;5.40;4.90;;;15.80;35.40;;;;;;10375578;28;20894;-72
2023/10/18 12:46:15;;;;;;;5.00;4.60;;;15.80;35.30;;;;;;10373921;28;20321;-71
2023/10/18 12:51:20;;;;;;;5.10;4.63;;;15.90;34.80;;;;;;10377475;28;20229;-71
2023/10/18 12:56:32;;;;;;;5.30;4.70;;;15.90;35.10;;;;;;10377735;28;20233;-75
2023/10/18 13:01:43;;;;;;;5.33;4.93;;;16.00;35.00;;;;;;10377077;28;20225;-74
2023/10/18 13:06:50;;;;;;;5.23;4.83;;;16.00;34.50;;;;;;10378779;28;20218;-75
2023/10/18 13:12:01;;;;;;;4.77;4.37;;;16.00;34.90;;;;;;10367347;28;20313;-75
2023/10/18 13:17:10;;;;;;;4.90;4.50;;;16.10;34.70;;;;;;10374341;28;20261;-75
2023/10/18 13:22:17;;;;;;;4.70;4.30;;;16.20;34.70;;;;;;10376980;28;20248;-71
2023/10/18 13:27:28;;;;;;;5.07;4.67;;;16.20;35.00;;;;;;10373637;28;20230;-72
2023/10/18 13:32:33;;;;;;;15.17;6.07;;;16.30;35.10;;;;;;10379596;28;20735;-72
2023/10/18 13:37:37;;;;;;;5.50;4.80;;;16.40;34.50;;;;;;10381534;28;20902;-75
2023/10/18 13:42:41;;;;;;;4.90;4.50;;;16.50;34.80;;;;;;10380671;28;20280;-76
2023/10/18 13:47:45;;;;;;;5.30;4.80;;;16.50;34.60;;;;;;10383270;28;20611;-76
2023/10/18 13:52:52;;;;;;;4.47;4.07;;;16.60;34.20;;;;;;10381934;28;20233;-76
2023/10/18 13:57:57;;;;;;;4.40;4.10;;;16.70;33.60;;;;;;10368143;28;20225;-72
2023/10/18 14:03:02;;;;;;;4.57;4.27;;;16.80;34.40;;;;;;10359915;28;20229;-73
2023/10/18 14:08:07;;;;;;;4.77;4.37;;;16.80;33.80;;;;;;10374287;28;20687;-72
2023/10/18 14:13:10;;;;;;;5.10;4.60;;;16.90;34.90;;;;;;10375472;28;20226;-76
2023/10/18 14:18:15;;;;;;;7.13;4.60;;;16.90;33.80;;;;;;10388748;28;20821;-76
2023/10/18 14:23:26;;;;;;;4.97;4.00;;;16.90;33.80;;;;;;10384892;28;20316;-76
2023/10/18 14:28:31;;;;;;;4.67;4.23;;;16.90;33.80;;;;;;10386343;28;20696;-76
2023/10/18 14:33:36;;;;;;;4.47;4.07;;;16.90;33.80;;;;;;10384210;28;20323;-76
2023/10/18 14:38:46;;;;;;;4.60;4.20;;;16.90;33.80;;;;;;10382265;28;20244;-76
2023/10/18 14:43:50;;;;;;;4.60;4.20;;;16.80;33.70;;;;;;10380125;28;20235;-76
2023/10/18 14:48:58;;;;;;;4.23;3.87;;;16.90;33.80;;;;;;10382516;28;20317;-76
2023/10/18 14:54:04;;;;;;;4.27;3.97;;;16.80;33.60;;;;;;10380986;28;20229;-77
2023/10/18 14:59:08;;;;;;;4.40;4.00;;;16.80;33.70;;;;;;10386093;28;20376;-75
2023/10/18 15:04:12;;;;;;;4.60;3.87;;;16.80;33.70;;;;;;10381650;28;20630;-75
2023/10/18 15:09:16;;;;;;;4.13;3.73;;;16.80;33.70;;;;;;10377797;28;20229;-75
2023/10/18 15:14:21;;;;;;;4.07;3.67;;;16.80;33.70;;;;;;10379437;28;20226;-79
2023/10/18 15:19:27;;;;;;;4.63;3.43;;;16.80;33.70;;;;;;10382964;28;21323;-71
2023/10/18 15:24:36;;;;;;;3.70;3.40;;;17.00;34.50;;;;;;10377993;28;20226;-76
2023/10/18 15:29:39;;;;;;;4.93;2.97;;;17.10;34.70;;;;;;10380913;28;20245;-75
2023/10/18 15:34:45;;;;;;;2.90;2.70;;;17.30;35.20;;;;;;10380482;28;20229;-75
2023/10/18 15:39:50;;;;;;;3.67;3.27;;;17.50;34.30;;;;;;10377929;28;20275;-75
2023/10/18 15:44:56;;;;;;;3.90;3.50;;;17.60;34.20;;;;;;10381000;28;20240;-75
2023/10/18 15:50:03;;;;;;;2.87;2.67;;;17.60;33.00;;;;;;10384588;28;20265;-74
2023/10/18 15:55:13;;;;;;;5.17;3.17;;;17.60;33.00;;;;;;10385859;28;20225;-74
2023/10/18 16:00:23;;;;;;;4.37;3.30;;;17.60;32.80;;;;;;10382467;28;20218;-74
2023/10/18 16:05:35;;;;;;;5.10;3.50;;;17.60;33.20;;;;;;10382002;28;20312;-75
2023/10/18 16:10:38;;;;;;;4.37;4.03;;;17.50;32.00;;;;;;10379231;28;20221;-73
2023/10/18 16:15:42;;;;;;;5.57;5.07;;;17.50;32.60;;;;;;10381561;28;20735;-74
2023/10/18 16:20:47;;;;;;;3.77;3.47;;;17.40;32.50;;;;;;10380917;28;20742;-76
2023/10/18 16:25:50;;;;;;;3.30;3.00;;;17.40;32.20;;;;;;10381382;28;20260;-74
2023/10/18 16:30:54;;;;;;;3.53;3.23;;;17.40;32.40;;;;;;10383429;28;20237;-74
2023/10/18 16:35:59;;;;;;;3.70;2.60;;;17.30;32.40;;;;;;10382238;28;20218;-74
2023/10/18 16:41:07;;;;;;;3.43;3.00;;;17.20;31.90;;;;;;10386445;28;20866;-72
2023/10/18 16:46:12;;;;;;;2.97;2.77;;;17.20;32.40;;;;;;10387317;28;20234;-71
2023/10/18 16:51:16;;;;;;;4.90;2.97;;;17.10;32.40;;;;;;10387724;28;20234;-71
2023/10/18 16:56:20;;;;;;;10.50;3.90;;;17.10;32.40;;;;;;10390227;28;20229;-72
2023/10/18 17:01:24;;;;;;;8.47;4.30;;;17.10;32.70;;;;;;10389913;28;20312;-73
2023/10/18 17:06:29;;;;;;;10.07;4.20;;;17.00;32.70;;;;;;10381272;28;20229;-73
2023/10/18 17:11:32;;;;;;;10.90;3.90;;;17.00;32.60;;;;;;10390962;28;20233;-73
2023/10/18 17:16:36;;;;;;;6.27;3.60;;;16.90;32.90;;;;;;10384570;28;20652;-73
2023/10/18 17:21:42;;;;;;;3.73;2.70;;;16.90;33.00;;;;;;10387855;28;20242;-75
2023/10/18 17:26:45;;;;;;;2.97;2.63;;;16.90;33.40;;;;;;10386824;28;20797;-72
2023/10/18 17:31:49;;;;;;;4.10;3.80;;;16.80;33.10;;;;;;10389801;28;20253;-72
2023/10/18 17:36:53;;;;;;;3.80;3.50;;;16.80;32.90;;;;;;10389781;28;20233;-73
2023/10/18 17:41:56;;;;;;;3.73;3.43;;;16.70;32.40;;;;;;10386625;28;20241;-73
2023/10/18 17:47:00;;;;;;;3.83;3.47;;;16.60;32.60;;;;;;10391255;28;20224;-72
2023/10/18 17:52:05;;;;;;;4.90;4.40;;;16.60;32.90;;;;;;10387840;28;20222;-73
2023/10/18 17:57:10;;;;;;;6.23;5.00;;;16.50;33.00;;;;;;10385700;28;20317;-72
2023/10/18 18:02:13;;;;;;;9.03;6.03;;;16.40;33.30;;;;;;10387685;28;20221;-73
2023/10/18 18:07:18;;;;;;;5.00;4.50;;;16.40;33.40;;;;;;10387605;28;20225;-72
2023/10/18 18:12:22;;;;;;;4.40;4.00;;;16.40;33.30;;;;;;10388264;28;20237;-72
2023/10/18 18:17:26;;;;;;;4.00;3.70;;;16.30;33.30;;;;;;10390838;28;20233;-73
2023/10/18 18:22:31;;;;;;;5.67;3.93;;;16.30;33.70;;;;;;10387130;28;20226;-72
2023/10/18 18:27:34;;;;;;;4.20;3.90;;;16.30;33.40;;;;;;10388227;28;20300;-72
2023/10/18 18:32:39;;;;;;;4.03;3.63;;;16.20;33.70;;;;;;10385696;28;20243;-72
2023/10/18 18:37:46;;;;;;;3.77;3.37;;;16.10;34.10;;;;;;10388738;28;20230;-72
2023/10/18 18:42:51;;;;;;;3.73;3.43;;;16.00;34.10;;;;;;10387324;28;20226;-72
2023/10/18 18:47:56;;;;;;;2.83;2.63;;;16.00;34.30;;;;;;10386427;28;20221;-73
2023/10/18 18:53:01;;;;;;;3.83;3.40;;;15.90;33.90;;;;;;10383856;28;20226;-76
2023/10/18 18:58:05;;;;;;;3.63;3.33;;;15.90;34.40;;;;;;10385069;28;20744;-72
2023/10/18 19:03:08;;;;;;;3.70;3.40;;;15.80;34.40;;;;;;10386783;28;20236;-72
2023/10/18 19:08:13;;;;;;;3.57;3.27;;;15.80;34.50;;;;;;10386807;28;20249;-72
2023/10/18 19:13:16;;;;;;;5.63;5.13;;;15.80;34.70;;;;;;10381040;28;20230;-73
2023/10/18 19:18:19;;;;;;;6.87;5.93;;;15.70;34.60;;;;;;10384751;28;20879;-76
2023/10/18 19:23:26;;;;;;;6.10;5.27;;;15.70;34.60;;;;;;10378757;28;20246;-76
2023/10/18 19:28:32;;;;;;;4.27;3.83;;;15.70;34.70;;;;;;10388130;28;20295;-76
2023/10/18 19:33:35;;;;;;;5.00;4.50;;;15.60;34.60;;;;;;10370507;28;20233;-74
2023/10/18 19:38:41;;;;;;;4.87;4.47;;;15.50;34.60;;;;;;10378492;28;20236;-76
2023/10/18 19:43:47;;;;;;;5.57;5.07;;;15.40;34.90;;;;;;10377401;28;20252;-76
2023/10/18 19:48:50;;;;;;;9.73;6.10;;;15.40;34.80;;;;;;10381287;28;20226;-77
2023/10/18 19:53:55;;;;;;;5.67;5.17;;;15.40;34.80;;;;;;10380584;28;20781;-76
2023/10/18 19:58:59;;;;;;;5.27;4.87;;;15.30;34.90;;;;;;10372156;28;20645;-76
2023/10/18 20:04:04;;;;;;;5.97;5.47;;;15.30;35.00;;;;;;10374662;28;20226;-75
2023/10/18 20:09:09;;;;;;;7.23;6.63;;;15.20;34.90;;;;;;10378185;28;20267;-76
2023/10/18 20:14:12;;;;;;;8.07;7.37;;;15.20;35.20;;;;;;10388647;28;20222;-77
2023/10/18 20:19:15;;;;;;;7.87;7.17;;;15.20;35.10;;;;;;10387954;28;20280;-78
2023/10/18 20:24:20;;;;;;;7.73;6.93;;;15.10;34.90;;;;;;10386865;28;20702;-77
2023/10/18 20:29:23;;;;;;;7.37;6.77;;;15.00;35.20;;;;;;10381587;28;20284;-77
2023/10/18 20:34:26;;;;;;;6.97;6.37;;;15.00;35.20;;;;;;10381980;28;20815;-77
2023/10/18 20:39:31;;;;;;;6.50;6.00;;;14.90;35.30;;;;;;10384733;28;20226;-77
2023/10/18 20:44:55;;;;;;;9.63;8.80;;;15.00;35.60;;;;;;10384272;28;21171;-77
2023/10/18 20:50:04;;;;;;;9.90;9.00;;;14.90;35.40;;;;;;10381270;28;20234;-77
2023/10/18 20:55:10;;;;;;;8.30;7.50;;;14.90;35.40;;;;;;10384778;28;20236;-76
2023/10/18 21:00:20;;;;;;;8.47;7.67;;;14.90;35.80;;;;;;10385109;28;20239;-77
2023/10/18 21:05:28;;;;;;;7.93;7.27;;;14.90;35.60;;;;;;10386437;28;20229;-74
2023/10/18 21:10:33;;;;;;;7.53;6.93;;;14.90;35.60;;;;;;10382562;28;20738;-72
2023/10/18 21:15:37;;;;;;;6.77;6.27;;;14.90;36.00;;;;;;10383160;28;20229;-77
2023/10/18 21:20:40;;;;;;;8.60;7.90;;;14.80;35.80;;;;;;10382139;28;20715;-77
2023/10/18 21:25:45;;;;;;;8.33;7.63;;;14.80;35.90;;;;;;10389467;28;20449;-77
2023/10/18 21:30:51;;;;;;;9.07;8.27;;;14.80;36.10;;;;;;10385565;28;20611;-77
2023/10/18 21:36:02;;;;;;;9.10;8.30;;;14.80;35.70;;;;;;10380246;28;20229;-77
2023/10/18 21:41:12;;;;;;;10.53;9.63;;;14.70;36.20;;;;;;10383958;28;20241;-77
2023/10/18 21:46:17;;;;;;;10.23;9.33;;;14.60;35.80;;;;;;10388414;28;21267;-76
2023/10/18 21:51:20;;;;;;;9.70;8.83;;;14.50;35.70;;;;;;10382075;28;20225;-77
2023/10/18 21:56:25;;;;;;;11.27;10.27;;;14.40;35.70;;;;;;10384250;28;20228;-77
2023/10/18 22:01:39;;;;;;;11.80;10.80;;;14.30;36.10;;;;;;10381803;28;20240;-77
2023/10/18 22:06:43;;;;;;;11.70;10.60;;;14.20;36.00;;;;;;10381602;28;20965;-77
2023/10/18 22:11:49;;;;;;;11.37;10.37;;;14.20;36.10;;;;;;10383999;28;20703;-77
2023/10/18 22:16:54;;;;;;;10.83;9.93;;;14.20;36.60;;;;;;10381194;28;20232;-74
2023/10/18 22:22:10;;;;;;;10.47;9.57;;;14.30;36.40;;;;;;10384345;28;20233;-77
2023/10/18 22:27:16;;;;;;;9.83;9.03;;;14.30;36.30;;;;;;10383679;28;20949;-77
2023/10/18 22:32:24;;;;;;;9.70;8.83;;;14.30;36.50;;;;;;10384323;28;20237;-77
2023/10/18 22:37:28;;;;;;;11.27;10.27;;;14.20;36.40;;;;;;10381069;28;20252;-77
2023/10/18 22:42:38;;;;;;;12.17;11.17;;;14.20;36.40;;;;;;10379002;28;20237;-77
2023/10/18 22:47:44;;;;;;;11.23;10.17;;;14.20;36.20;;;;;;10382153;28;20367;-77
2023/10/18 22:52:52;;;;;;;11.73;10.73;;;14.20;36.10;;;;;;10376418;28;20252;-77
2023/10/18 22:57:57;;;;;;;12.40;11.30;;;14.20;36.50;;;;;;10382605;28;20257;-77
2023/10/18 23:03:04;;;;;;;11.83;10.83;;;14.20;36.50;;;;;;10383087;28;20676;-76
2023/10/18 23:08:20;;;;;;;11.30;10.27;;;14.20;36.40;;;;;;10378745;28;20883;-76
2023/10/18 23:13:35;;;;;;;11.67;10.67;;;14.20;36.40;;;;;;10378563;28;20324;-77
2023/10/18 23:18:53;;;;;;;11.23;10.33;;;14.20;36.60;;;;;;10381869;28;20234;-77
2023/10/18 23:24:11;;;;;;;12.20;11.00;;;14.10;36.40;;;;;;10381900;28;20245;-77
2023/10/18 23:29:16;;;;;;;12.07;10.90;;;14.10;36.30;;;;;;10381723;28;20229;-77
2023/10/18 23:34:27;;;;;;;12.53;11.27;;;14.10;36.60;;;;;;10380596;28;20222;-77
2023/10/18 23:39:37;;;;;;;11.43;10.43;;;14.10;36.50;;;;;;10381177;28;20223;-72
2023/10/18 23:45:04;;;;;;;12.50;11.40;;;14.00;36.30;;;;;;10375217;28;20233;-72
2023/10/18 23:50:18;;;;;;;10.20;9.30;;;14.10;36.70;;;;;;10392933;28;20233;-73
2023/10/18 23:55:33;;;;;;;11.40;10.40;;;14.00;36.40;;;;;;10387086;28;21021;-73
